sensor_id;sensor_type;location;lat;lon;timestamp;P1;durP1;ratioP1;P2;durP2;ratioP2
71806;SDS011;59655;42.590;23.364;2023-07-22T00:02:10;10.77;;;5.68;;
71806;SDS011;59655;42.590;23.364;2023-07-22T00:04:35;9.38;;;5.47;;
71806;SDS011;59655;42.590;23.364;2023-07-22T00:07:01;10.85;;;5.32;;
71806;SDS011;59655;42.590;23.364;2023-07-22T00:09:26;12.00;;;5.43;;
71806;SDS011;59655;42.590;23.364;2023-07-22T00:11:52;11.70;;;5.68;;
71806;SDS011;59655;42.590;23.364;2023-07-22T00:14:17;11.90;;;5.88;;
71806;SDS011;59655;42.590;23.364;2023-07-22T00:16:42;12.35;;;5.57;;
71806;SDS011;59655;42.590;23.364;2023-07-22T00:19:08;13.18;;;5.32;;
71806;SDS011;59655;42.590;23.364;2023-07-22T00:21:33;12.90;;;5.88;;
71806;SDS011;59655;42.590;23.364;2023-07-22T00:23:59;13.88;;;5.68;;
71806;SDS011;59655;42.590;23.364;2023-07-22T00:26:25;12.82;;;5.70;;
71806;SDS011;59655;42.590;23.364;2023-07-22T00:28:51;11.35;;;5.57;;
71806;SDS011;59655;42.590;23.364;2023-07-22T00:31:16;10.85;;;5.72;;
71806;SDS011;59655;42.590;23.364;2023-07-22T00:33:42;13.63;;;6.60;;
71806;SDS011;59655;42.590;23.364;2023-07-22T00:36:07;10.68;;;5.60;;
71806;SDS011;59655;42.590;23.364;2023-07-22T00:38:33;12.93;;;5.68;;
71806;SDS011;59655;42.590;23.364;2023-07-22T00:40:58;13.77;;;6.03;;
71806;SDS011;59655;42.590;23.364;2023-07-22T00:43:24;16.90;;;6.78;;
71806;SDS011;59655;42.590;23.364;2023-07-22T00:45:51;13.98;;;5.78;;
71806;SDS011;59655;42.590;23.364;2023-07-22T00:48:16;13.88;;;5.95;;
71806;SDS011;59655;42.590;23.364;2023-07-22T00:50:43;11.65;;;6.30;;
71806;SDS011;59655;42.590;23.364;2023-07-22T00:53:09;12.63;;;5.80;;
71806;SDS011;59655;42.590;23.364;2023-07-22T00:55:34;12.30;;;6.25;;
71806;SDS011;59655;42.590;23.364;2023-07-22T00:58:00;14.00;;;6.03;;
71806;SDS011;59655;42.590;23.364;2023-07-22T01:00:26;11.35;;;6.05;;
71806;SDS011;59655;42.590;23.364;2023-07-22T01:02:51;12.50;;;6.00;;
71806;SDS011;59655;42.590;23.364;2023-07-22T01:05:17;14.38;;;6.35;;
71806;SDS011;59655;42.590;23.364;2023-07-22T01:07:43;10.23;;;5.80;;
71806;SDS011;59655;42.590;23.364;2023-07-22T01:10:09;11.20;;;5.97;;
71806;SDS011;59655;42.590;23.364;2023-07-22T01:12:36;12.63;;;5.72;;
71806;SDS011;59655;42.590;23.364;2023-07-22T01:15:02;14.98;;;6.13;;
71806;SDS011;59655;42.590;23.364;2023-07-22T01:17:35;14.18;;;6.22;;
71806;SDS011;59655;42.590;23.364;2023-07-22T01:20:03;14.25;;;6.05;;
71806;SDS011;59655;42.590;23.364;2023-07-22T01:22:30;10.30;;;5.63;;
71806;SDS011;59655;42.590;23.364;2023-07-22T01:24:57;12.23;;;6.15;;
71806;SDS011;59655;42.590;23.364;2023-07-22T01:27:23;16.13;;;6.43;;
71806;SDS011;59655;42.590;23.364;2023-07-22T01:29:52;12.32;;;6.22;;
71806;SDS011;59655;42.590;23.364;2023-07-22T01:32:18;13.77;;;6.65;;
71806;SDS011;59655;42.590;23.364;2023-07-22T01:34:43;14.90;;;6.30;;
71806;SDS011;59655;42.590;23.364;2023-07-22T01:37:08;11.73;;;6.47;;
71806;SDS011;59655;42.590;23.364;2023-07-22T01:39:35;16.35;;;6.22;;
71806;SDS011;59655;42.590;23.364;2023-07-22T01:42:01;12.80;;;6.60;;
71806;SDS011;59655;42.590;23.364;2023-07-22T01:44:27;15.90;;;6.93;;
71806;SDS011;59655;42.590;23.364;2023-07-22T01:46:52;13.88;;;6.38;;
71806;SDS011;59655;42.590;23.364;2023-07-22T01:49:18;12.52;;;6.65;;
71806;SDS011;59655;42.590;23.364;2023-07-22T01:51:43;10.02;;;6.03;;
71806;SDS011;59655;42.590;23.364;2023-07-22T01:54:09;13.23;;;6.05;;
71806;SDS011;59655;42.590;23.364;2023-07-22T01:56:35;12.57;;;6.22;;
71806;SDS011;59655;42.590;23.364;2023-07-22T01:59:01;13.30;;;6.60;;
71806;SDS011;59655;42.590;23.364;2023-07-22T02:01:27;15.50;;;7.03;;
71806;SDS011;59655;42.590;23.364;2023-07-22T02:03:53;16.35;;;6.85;;
71806;SDS011;59655;42.590;23.364;2023-07-22T02:06:19;15.77;;;7.05;;
71806;SDS011;59655;42.590;23.364;2023-07-22T02:08:45;11.05;;;6.75;;
71806;SDS011;59655;42.590;23.364;2023-07-22T02:11:10;15.30;;;6.43;;
71806;SDS011;59655;42.590;23.364;2023-07-22T02:13:36;15.27;;;7.00;;
71806;SDS011;59655;42.590;23.364;2023-07-22T02:16:02;14.70;;;7.30;;
71806;SDS011;59655;42.590;23.364;2023-07-22T02:18:28;16.10;;;6.63;;
71806;SDS011;59655;42.590;23.364;2023-07-22T02:20:54;14.45;;;6.60;;
71806;SDS011;59655;42.590;23.364;2023-07-22T02:23:20;13.65;;;6.80;;
71806;SDS011;59655;42.590;23.364;2023-07-22T02:25:52;13.90;;;7.43;;
71806;SDS011;59655;42.590;23.364;2023-07-22T02:28:18;15.52;;;6.35;;
71806;SDS011;59655;42.590;23.364;2023-07-22T02:30:46;14.73;;;7.22;;
71806;SDS011;59655;42.590;23.364;2023-07-22T02:33:13;14.90;;;6.82;;
71806;SDS011;59655;42.590;23.364;2023-07-22T02:35:38;16.10;;;7.30;;
71806;SDS011;59655;42.590;23.364;2023-07-22T02:38:05;16.23;;;6.55;;
71806;SDS011;59655;42.590;23.364;2023-07-22T02:40:33;14.40;;;6.68;;
71806;SDS011;59655;42.590;23.364;2023-07-22T02:43:00;17.55;;;7.20;;
71806;SDS011;59655;42.590;23.364;2023-07-22T02:45:25;15.38;;;6.60;;
71806;SDS011;59655;42.590;23.364;2023-07-22T02:47:50;18.33;;;6.85;;
71806;SDS011;59655;42.590;23.364;2023-07-22T02:50:16;13.85;;;6.40;;
71806;SDS011;59655;42.590;23.364;2023-07-22T02:52:41;14.38;;;7.32;;
71806;SDS011;59655;42.590;23.364;2023-07-22T02:55:24;16.75;;;7.38;;
71806;SDS011;59655;42.590;23.364;2023-07-22T02:57:50;14.55;;;7.30;;
71806;SDS011;59655;42.590;23.364;2023-07-22T03:00:16;18.63;;;6.95;;
71806;SDS011;59655;42.590;23.364;2023-07-22T03:02:48;15.65;;;7.10;;
71806;SDS011;59655;42.590;23.364;2023-07-22T03:05:14;17.13;;;7.10;;
71806;SDS011;59655;42.590;23.364;2023-07-22T03:07:40;17.73;;;7.07;;
71806;SDS011;59655;42.590;23.364;2023-07-22T03:10:06;14.25;;;6.85;;
71806;SDS011;59655;42.590;23.364;2023-07-22T03:12:32;15.32;;;7.22;;
71806;SDS011;59655;42.590;23.364;2023-07-22T03:14:58;19.63;;;7.13;;
71806;SDS011;59655;42.590;23.364;2023-07-22T03:17:24;16.65;;;7.25;;
71806;SDS011;59655;42.590;23.364;2023-07-22T03:19:49;14.70;;;6.70;;
71806;SDS011;59655;42.590;23.364;2023-07-22T03:22:16;15.68;;;7.28;;
71806;SDS011;59655;42.590;23.364;2023-07-22T03:24:42;12.60;;;7.15;;
71806;SDS011;59655;42.590;23.364;2023-07-22T03:27:08;19.40;;;7.55;;
71806;SDS011;59655;42.590;23.364;2023-07-22T03:29:33;15.75;;;7.43;;
71806;SDS011;59655;42.590;23.364;2023-07-22T03:31:59;20.80;;;7.10;;
71806;SDS011;59655;42.590;23.364;2023-07-22T03:34:30;16.38;;;7.25;;
71806;SDS011;59655;42.590;23.364;2023-07-22T03:36:55;15.57;;;7.05;;
71806;SDS011;59655;42.590;23.364;2023-07-22T03:39:21;15.68;;;7.13;;
71806;SDS011;59655;42.590;23.364;2023-07-22T03:41:46;17.27;;;7.25;;
71806;SDS011;59655;42.590;23.364;2023-07-22T03:44:12;16.63;;;7.53;;
71806;SDS011;59655;42.590;23.364;2023-07-22T03:46:37;15.48;;;7.10;;
71806;SDS011;59655;42.590;23.364;2023-07-22T03:49:03;15.60;;;7.22;;
71806;SDS011;59655;42.590;23.364;2023-07-22T03:51:29;13.50;;;7.18;;
71806;SDS011;59655;42.590;23.364;2023-07-22T03:53:54;18.05;;;8.10;;
71806;SDS011;59655;42.590;23.364;2023-07-22T03:56:20;14.52;;;7.53;;
71806;SDS011;59655;42.590;23.364;2023-07-22T03:58:45;14.25;;;7.35;;
71806;SDS011;59655;42.590;23.364;2023-07-22T04:01:11;16.17;;;7.32;;
71806;SDS011;59655;42.590;23.364;2023-07-22T04:03:37;16.58;;;7.15;;
71806;SDS011;59655;42.590;23.364;2023-07-22T04:06:03;15.73;;;7.22;;
71806;SDS011;59655;42.590;23.364;2023-07-22T04:08:28;13.40;;;6.63;;
71806;SDS011;59655;42.590;23.364;2023-07-22T04:10:55;15.32;;;8.05;;
71806;SDS011;59655;42.590;23.364;2023-07-22T04:13:21;12.75;;;6.95;;
71806;SDS011;59655;42.590;23.364;2023-07-22T04:15:48;13.10;;;7.65;;
71806;SDS011;59655;42.590;23.364;2023-07-22T04:18:17;15.07;;;7.45;;
71806;SDS011;59655;42.590;23.364;2023-07-22T04:20:44;18.40;;;7.88;;
71806;SDS011;59655;42.590;23.364;2023-07-22T04:23:10;15.27;;;7.82;;
71806;SDS011;59655;42.590;23.364;2023-07-22T04:25:44;17.70;;;8.32;;
71806;SDS011;59655;42.590;23.364;2023-07-22T04:28:10;18.48;;;8.27;;
71806;SDS011;59655;42.590;23.364;2023-07-22T04:30:36;14.35;;;7.80;;
71806;SDS011;59655;42.590;23.364;2023-07-22T04:33:03;13.15;;;7.53;;
71806;SDS011;59655;42.590;23.364;2023-07-22T04:37:58;12.05;;;6.97;;
71806;SDS011;59655;42.590;23.364;2023-07-22T04:40:24;15.88;;;6.75;;
71806;SDS011;59655;42.590;23.364;2023-07-22T04:42:50;15.02;;;7.00;;
71806;SDS011;59655;42.590;23.364;2023-07-22T04:45:16;19.65;;;6.82;;
71806;SDS011;59655;42.590;23.364;2023-07-22T04:47:43;11.75;;;6.57;;
71806;SDS011;59655;42.590;23.364;2023-07-22T04:50:11;12.07;;;6.95;;
71806;SDS011;59655;42.590;23.364;2023-07-22T04:52:38;16.65;;;7.55;;
71806;SDS011;59655;42.590;23.364;2023-07-22T04:55:03;13.75;;;7.22;;
71806;SDS011;59655;42.590;23.364;2023-07-22T04:57:37;12.30;;;7.22;;
71806;SDS011;59655;42.590;23.364;2023-07-22T05:00:03;17.73;;;7.78;;
71806;SDS011;59655;42.590;23.364;2023-07-22T05:02:29;14.23;;;7.20;;
71806;SDS011;59655;42.590;23.364;2023-07-22T05:04:56;17.20;;;7.47;;
71806;SDS011;59655;42.590;23.364;2023-07-22T05:07:21;13.15;;;7.45;;
71806;SDS011;59655;42.590;23.364;2023-07-22T05:09:47;13.63;;;7.57;;
71806;SDS011;59655;42.590;23.364;2023-07-22T05:12:12;12.80;;;7.22;;
71806;SDS011;59655;42.590;23.364;2023-07-22T05:14:37;14.45;;;7.88;;
71806;SDS011;59655;42.590;23.364;2023-07-22T05:17:03;13.82;;;7.72;;
71806;SDS011;59655;42.590;23.364;2023-07-22T05:19:29;17.05;;;7.05;;
71806;SDS011;59655;42.590;23.364;2023-07-22T05:21:54;14.10;;;8.13;;
71806;SDS011;59655;42.590;23.364;2023-07-22T05:24:19;17.10;;;7.18;;
71806;SDS011;59655;42.590;23.364;2023-07-22T05:26:46;16.95;;;8.60;;
71806;SDS011;59655;42.590;23.364;2023-07-22T05:29:11;19.58;;;8.23;;
71806;SDS011;59655;42.590;23.364;2023-07-22T05:31:37;13.30;;;7.63;;
71806;SDS011;59655;42.590;23.364;2023-07-22T05:34:03;15.98;;;8.18;;
71806;SDS011;59655;42.590;23.364;2023-07-22T05:36:29;14.20;;;7.63;;
71806;SDS011;59655;42.590;23.364;2023-07-22T05:38:54;14.95;;;7.95;;
71806;SDS011;59655;42.590;23.364;2023-07-22T05:41:20;12.68;;;7.93;;
71806;SDS011;59655;42.590;23.364;2023-07-22T05:43:47;12.45;;;7.72;;
71806;SDS011;59655;42.590;23.364;2023-07-22T05:46:12;16.00;;;8.05;;
71806;SDS011;59655;42.590;23.364;2023-07-22T05:48:38;14.82;;;8.00;;
71806;SDS011;59655;42.590;23.364;2023-07-22T05:51:03;14.63;;;7.88;;
71806;SDS011;59655;42.590;23.364;2023-07-22T05:53:28;18.00;;;7.95;;
71806;SDS011;59655;42.590;23.364;2023-07-22T05:55:54;13.80;;;8.13;;
71806;SDS011;59655;42.590;23.364;2023-07-22T05:58:19;14.43;;;8.05;;
71806;SDS011;59655;42.590;23.364;2023-07-22T06:00:45;14.57;;;8.25;;
71806;SDS011;59655;42.590;23.364;2023-07-22T06:03:11;15.48;;;8.60;;
71806;SDS011;59655;42.590;23.364;2023-07-22T06:05:37;14.48;;;8.13;;
71806;SDS011;59655;42.590;23.364;2023-07-22T06:08:02;18.67;;;9.23;;
71806;SDS011;59655;42.590;23.364;2023-07-22T06:10:28;18.75;;;8.68;;
71806;SDS011;59655;42.590;23.364;2023-07-22T06:12:54;16.33;;;8.65;;
71806;SDS011;59655;42.590;23.364;2023-07-22T06:15:20;15.13;;;9.15;;
71806;SDS011;59655;42.590;23.364;2023-07-22T06:17:45;16.52;;;8.23;;
71806;SDS011;59655;42.590;23.364;2023-07-22T06:20:11;18.20;;;9.07;;
71806;SDS011;59655;42.590;23.364;2023-07-22T06:22:37;21.83;;;9.77;;
71806;SDS011;59655;42.590;23.364;2023-07-22T06:25:04;16.23;;;8.88;;
71806;SDS011;59655;42.590;23.364;2023-07-22T06:27:30;23.15;;;9.05;;
71806;SDS011;59655;42.590;23.364;2023-07-22T06:29:55;15.57;;;8.48;;
71806;SDS011;59655;42.590;23.364;2023-07-22T06:32:21;19.70;;;10.13;;
71806;SDS011;59655;42.590;23.364;2023-07-22T06:34:50;21.63;;;9.80;;
71806;SDS011;59655;42.590;23.364;2023-07-22T06:37:18;20.33;;;8.73;;
71806;SDS011;59655;42.590;23.364;2023-07-22T06:39:43;23.48;;;10.60;;
71806;SDS011;59655;42.590;23.364;2023-07-22T06:42:08;18.98;;;10.88;;
71806;SDS011;59655;42.590;23.364;2023-07-22T06:44:34;25.25;;;10.55;;
71806;SDS011;59655;42.590;23.364;2023-07-22T06:46:59;22.08;;;10.57;;
71806;SDS011;59655;42.590;23.364;2023-07-22T06:49:25;23.98;;;11.15;;
71806;SDS011;59655;42.590;23.364;2023-07-22T06:51:50;24.33;;;10.82;;
71806;SDS011;59655;42.590;23.364;2023-07-22T06:54:16;23.23;;;10.50;;
71806;SDS011;59655;42.590;23.364;2023-07-22T06:56:42;22.48;;;11.63;;
71806;SDS011;59655;42.590;23.364;2023-07-22T06:59:07;20.75;;;11.05;;
71806;SDS011;59655;42.590;23.364;2023-07-22T07:01:33;20.55;;;10.95;;
71806;SDS011;59655;42.590;23.364;2023-07-22T07:03:59;18.70;;;10.35;;
71806;SDS011;59655;42.590;23.364;2023-07-22T07:06:24;26.33;;;11.45;;
71806;SDS011;59655;42.590;23.364;2023-07-22T07:08:50;21.05;;;11.02;;
71806;SDS011;59655;42.590;23.364;2023-07-22T07:11:15;23.33;;;11.00;;
71806;SDS011;59655;42.590;23.364;2023-07-22T07:13:40;23.23;;;10.68;;
71806;SDS011;59655;42.590;23.364;2023-07-22T07:16:25;23.10;;;12.27;;
71806;SDS011;59655;42.590;23.364;2023-07-22T07:18:53;22.00;;;10.55;;
71806;SDS011;59655;42.590;23.364;2023-07-22T07:21:20;30.00;;;11.65;;
71806;SDS011;59655;42.590;23.364;2023-07-22T07:23:45;25.20;;;12.50;;
71806;SDS011;59655;42.590;23.364;2023-07-22T07:26:11;22.13;;;11.48;;
71806;SDS011;59655;42.590;23.364;2023-07-22T07:28:36;24.90;;;11.93;;
71806;SDS011;59655;42.590;23.364;2023-07-22T07:31:02;24.30;;;12.15;;
71806;SDS011;59655;42.590;23.364;2023-07-22T07:33:27;24.33;;;12.40;;
71806;SDS011;59655;42.590;23.364;2023-07-22T07:35:53;30.75;;;13.52;;
71806;SDS011;59655;42.590;23.364;2023-07-22T07:38:19;28.75;;;13.73;;
71806;SDS011;59655;42.590;23.364;2023-07-22T07:40:44;26.63;;;12.30;;
71806;SDS011;59655;42.590;23.364;2023-07-22T07:43:10;28.00;;;12.27;;
71806;SDS011;59655;42.590;23.364;2023-07-22T07:45:38;27.95;;;12.55;;
71806;SDS011;59655;42.590;23.364;2023-07-22T07:48:04;23.58;;;12.40;;
71806;SDS011;59655;42.590;23.364;2023-07-22T07:50:30;22.85;;;13.00;;
71806;SDS011;59655;42.590;23.364;2023-07-22T07:52:57;21.73;;;12.52;;
71806;SDS011;59655;42.590;23.364;2023-07-22T07:55:22;29.02;;;13.25;;
71806;SDS011;59655;42.590;23.364;2023-07-22T07:57:47;28.95;;;13.57;;
71806;SDS011;59655;42.590;23.364;2023-07-22T08:00:13;30.00;;;12.77;;
71806;SDS011;59655;42.590;23.364;2023-07-22T08:02:39;27.13;;;13.05;;
71806;SDS011;59655;42.590;23.364;2023-07-22T08:05:04;20.73;;;12.48;;
71806;SDS011;59655;42.590;23.364;2023-07-22T08:07:30;25.00;;;12.90;;
71806;SDS011;59655;42.590;23.364;2023-07-22T08:09:56;27.85;;;13.32;;
71806;SDS011;59655;42.590;23.364;2023-07-22T08:12:22;24.27;;;13.63;;
71806;SDS011;59655;42.590;23.364;2023-07-22T08:14:48;26.30;;;12.52;;
71806;SDS011;59655;42.590;23.364;2023-07-22T08:17:13;21.42;;;12.93;;
71806;SDS011;59655;42.590;23.364;2023-07-22T08:19:39;24.08;;;13.13;;
71806;SDS011;59655;42.590;23.364;2023-07-22T08:22:04;29.45;;;14.27;;
71806;SDS011;59655;42.590;23.364;2023-07-22T08:24:31;23.70;;;12.77;;
71806;SDS011;59655;42.590;23.364;2023-07-22T08:26:57;27.10;;;13.05;;
71806;SDS011;59655;42.590;23.364;2023-07-22T08:29:23;24.27;;;12.05;;
71806;SDS011;59655;42.590;23.364;2023-07-22T08:31:49;22.45;;;13.75;;
71806;SDS011;59655;42.590;23.364;2023-07-22T08:34:14;26.23;;;17.02;;
71806;SDS011;59655;42.590;23.364;2023-07-22T08:36:40;25.23;;;13.95;;
71806;SDS011;59655;42.590;23.364;2023-07-22T08:39:06;24.10;;;14.07;;
71806;SDS011;59655;42.590;23.364;2023-07-22T08:41:32;26.02;;;12.80;;
71806;SDS011;59655;42.590;23.364;2023-07-22T08:43:59;22.98;;;13.18;;
71806;SDS011;59655;42.590;23.364;2023-07-22T08:48:53;26.88;;;13.82;;
71806;SDS011;59655;42.590;23.364;2023-07-22T08:51:19;29.67;;;12.98;;
71806;SDS011;59655;42.590;23.364;2023-07-22T08:53:46;25.10;;;13.48;;
71806;SDS011;59655;42.590;23.364;2023-07-22T08:56:12;28.42;;;13.75;;
71806;SDS011;59655;42.590;23.364;2023-07-22T08:58:38;27.67;;;13.20;;
71806;SDS011;59655;42.590;23.364;2023-07-22T09:01:04;24.88;;;13.65;;
71806;SDS011;59655;42.590;23.364;2023-07-22T09:03:30;26.20;;;14.30;;
71806;SDS011;59655;42.590;23.364;2023-07-22T09:05:57;24.00;;;12.95;;
71806;SDS011;59655;42.590;23.364;2023-07-22T09:08:23;26.52;;;14.25;;
71806;SDS011;59655;42.590;23.364;2023-07-22T09:10:49;29.23;;;14.93;;
71806;SDS011;59655;42.590;23.364;2023-07-22T09:13:14;27.60;;;13.63;;
71806;SDS011;59655;42.590;23.364;2023-07-22T09:15:40;39.42;;;13.98;;
71806;SDS011;59655;42.590;23.364;2023-07-22T09:18:07;25.13;;;13.63;;
71806;SDS011;59655;42.590;23.364;2023-07-22T09:20:33;28.00;;;13.45;;
71806;SDS011;59655;42.590;23.364;2023-07-22T09:22:59;27.20;;;13.70;;
71806;SDS011;59655;42.590;23.364;2023-07-22T09:25:26;29.77;;;15.30;;
71806;SDS011;59655;42.590;23.364;2023-07-22T09:30:26;24.25;;;13.43;;
71806;SDS011;59655;42.590;23.364;2023-07-22T09:32:55;29.00;;;14.18;;
71806;SDS011;59655;42.590;23.364;2023-07-22T09:35:25;26.65;;;13.13;;
71806;SDS011;59655;42.590;23.364;2023-07-22T09:37:53;32.58;;;14.73;;
71806;SDS011;59655;42.590;23.364;2023-07-22T09:40:19;32.45;;;15.38;;
71806;SDS011;59655;42.590;23.364;2023-07-22T09:42:45;35.08;;;14.65;;
71806;SDS011;59655;42.590;23.364;2023-07-22T09:45:16;35.30;;;15.82;;
71806;SDS011;59655;42.590;23.364;2023-07-22T09:47:43;29.35;;;14.45;;
71806;SDS011;59655;42.590;23.364;2023-07-22T09:50:10;30.17;;;14.80;;
71806;SDS011;59655;42.590;23.364;2023-07-22T09:52:49;35.70;;;15.07;;
71806;SDS011;59655;42.590;23.364;2023-07-22T09:55:17;30.90;;;14.35;;
71806;SDS011;59655;42.590;23.364;2023-07-22T09:57:45;28.45;;;13.88;;
71806;SDS011;59655;42.590;23.364;2023-07-22T10:00:13;34.15;;;15.38;;
71806;SDS011;59655;42.590;23.364;2023-07-22T10:02:44;35.10;;;16.75;;
71806;SDS011;59655;42.590;23.364;2023-07-22T10:05:12;32.45;;;14.85;;
71806;SDS011;59655;42.590;23.364;2023-07-22T10:07:40;31.58;;;13.93;;
71806;SDS011;59655;42.590;23.364;2023-07-22T10:10:10;31.73;;;14.70;;
71806;SDS011;59655;42.590;23.364;2023-07-22T10:12:36;31.13;;;14.70;;
71806;SDS011;59655;42.590;23.364;2023-07-22T10:15:02;32.53;;;14.63;;
71806;SDS011;59655;42.590;23.364;2023-07-22T10:19:55;34.63;;;15.45;;
71806;SDS011;59655;42.590;23.364;2023-07-22T10:22:21;35.97;;;15.00;;
71806;SDS011;59655;42.590;23.364;2023-07-22T10:24:47;34.58;;;15.45;;
71806;SDS011;59655;42.590;23.364;2023-07-22T10:27:13;37.88;;;15.43;;
71806;SDS011;59655;42.590;23.364;2023-07-22T10:29:41;33.60;;;15.10;;
71806;SDS011;59655;42.590;23.364;2023-07-22T10:32:07;32.13;;;15.70;;
71806;SDS011;59655;42.590;23.364;2023-07-22T10:34:32;36.45;;;17.40;;
71806;SDS011;59655;42.590;23.364;2023-07-22T10:36:57;29.85;;;14.90;;
71806;SDS011;59655;42.590;23.364;2023-07-22T10:39:27;35.78;;;15.43;;
71806;SDS011;59655;42.590;23.364;2023-07-22T10:42:00;42.60;;;16.50;;
71806;SDS011;59655;42.590;23.364;2023-07-22T10:44:26;35.17;;;14.57;;
71806;SDS011;59655;42.590;23.364;2023-07-22T10:46:58;33.90;;;14.38;;
71806;SDS011;59655;42.590;23.364;2023-07-22T10:49:24;31.60;;;13.80;;
71806;SDS011;59655;42.590;23.364;2023-07-22T10:52:07;37.58;;;15.05;;
71806;SDS011;59655;42.590;23.364;2023-07-22T10:54:33;35.60;;;11.80;;
71806;SDS011;59655;42.590;23.364;2023-07-22T10:57:04;36.53;;;9.90;;
71806;SDS011;59655;42.590;23.364;2023-07-22T10:59:52;41.28;;;10.07;;
71806;SDS011;59655;42.590;23.364;2023-07-22T11:02:23;35.60;;;8.60;;
71806;SDS011;59655;42.590;23.364;2023-07-22T11:04:50;31.65;;;10.38;;
71806;SDS011;59655;42.590;23.364;2023-07-22T11:07:15;50.35;;;10.23;;
71806;SDS011;59655;42.590;23.364;2023-07-22T11:09:55;41.15;;;9.05;;
71806;SDS011;59655;42.590;23.364;2023-07-22T11:12:20;38.75;;;9.10;;
71806;SDS011;59655;42.590;23.364;2023-07-22T11:17:16;33.10;;;7.80;;
71806;SDS011;59655;42.590;23.364;2023-07-22T11:19:43;32.33;;;8.35;;
71806;SDS011;59655;42.590;23.364;2023-07-22T11:22:08;37.88;;;9.30;;
71806;SDS011;59655;42.590;23.364;2023-07-22T11:24:35;39.70;;;8.15;;
71806;SDS011;59655;42.590;23.364;2023-07-22T11:27:04;38.90;;;8.38;;
71806;SDS011;59655;42.590;23.364;2023-07-22T11:29:31;35.45;;;7.93;;
71806;SDS011;59655;42.590;23.364;2023-07-22T11:31:56;40.92;;;9.13;;
71806;SDS011;59655;42.590;23.364;2023-07-22T11:34:23;41.10;;;8.63;;
71806;SDS011;59655;42.590;23.364;2023-07-22T11:36:49;39.63;;;9.38;;
71806;SDS011;59655;42.590;23.364;2023-07-22T11:39:19;35.30;;;8.80;;
71806;SDS011;59655;42.590;23.364;2023-07-22T11:41:46;37.97;;;8.32;;
71806;SDS011;59655;42.590;23.364;2023-07-22T11:44:14;40.90;;;8.25;;
71806;SDS011;59655;42.590;23.364;2023-07-22T11:46:58;32.33;;;8.23;;
71806;SDS011;59655;42.590;23.364;2023-07-22T11:49:31;38.67;;;8.07;;
71806;SDS011;59655;42.590;23.364;2023-07-22T11:51:59;44.55;;;8.70;;
71806;SDS011;59655;42.590;23.364;2023-07-22T11:54:25;37.22;;;8.93;;
71806;SDS011;59655;42.590;23.364;2023-07-22T11:56:50;39.63;;;7.70;;
71806;SDS011;59655;42.590;23.364;2023-07-22T11:59:16;31.77;;;7.15;;
71806;SDS011;59655;42.590;23.364;2023-07-22T12:01:43;34.03;;;7.40;;
71806;SDS011;59655;42.590;23.364;2023-07-22T12:04:13;40.60;;;6.85;;
71806;SDS011;59655;42.590;23.364;2023-07-22T12:06:39;39.22;;;8.05;;
71806;SDS011;59655;42.590;23.364;2023-07-22T12:09:06;42.72;;;7.97;;
71806;SDS011;59655;42.590;23.364;2023-07-22T12:11:34;33.42;;;7.25;;
71806;SDS011;59655;42.590;23.364;2023-07-22T12:14:06;34.10;;;7.32;;
71806;SDS011;59655;42.590;23.364;2023-07-22T12:16:33;46.13;;;9.55;;
71806;SDS011;59655;42.590;23.364;2023-07-22T12:19:00;38.22;;;9.13;;
71806;SDS011;59655;42.590;23.364;2023-07-22T12:21:27;32.80;;;7.30;;
71806;SDS011;59655;42.590;23.364;2023-07-22T12:23:52;42.25;;;7.30;;
71806;SDS011;59655;42.590;23.364;2023-07-22T12:26:18;31.70;;;6.68;;
71806;SDS011;59655;42.590;23.364;2023-07-22T12:28:43;36.20;;;7.90;;
71806;SDS011;59655;42.590;23.364;2023-07-22T12:31:08;36.60;;;6.93;;
71806;SDS011;59655;42.590;23.364;2023-07-22T12:33:34;31.58;;;7.55;;
71806;SDS011;59655;42.590;23.364;2023-07-22T12:36:00;39.42;;;7.32;;
71806;SDS011;59655;42.590;23.364;2023-07-22T12:38:25;29.83;;;8.10;;
71806;SDS011;59655;42.590;23.364;2023-07-22T12:40:50;38.20;;;7.90;;
71806;SDS011;59655;42.590;23.364;2023-07-22T12:43:16;39.60;;;7.88;;
71806;SDS011;59655;42.590;23.364;2023-07-22T12:45:41;32.30;;;6.47;;
71806;SDS011;59655;42.590;23.364;2023-07-22T12:48:06;42.33;;;7.25;;
71806;SDS011;59655;42.590;23.364;2023-07-22T12:50:32;28.88;;;7.45;;
71806;SDS011;59655;42.590;23.364;2023-07-22T12:53:01;31.60;;;7.10;;
71806;SDS011;59655;42.590;23.364;2023-07-22T12:55:28;34.63;;;7.70;;
71806;SDS011;59655;42.590;23.364;2023-07-22T12:57:53;35.92;;;7.82;;
71806;SDS011;59655;42.590;23.364;2023-07-22T13:00:19;38.10;;;7.28;;
71806;SDS011;59655;42.590;23.364;2023-07-22T13:02:44;29.92;;;7.43;;
71806;SDS011;59655;42.590;23.364;2023-07-22T13:05:09;38.28;;;7.28;;
71806;SDS011;59655;42.590;23.364;2023-07-22T13:07:35;32.17;;;7.10;;
71806;SDS011;59655;42.590;23.364;2023-07-22T13:10:01;33.08;;;7.72;;
71806;SDS011;59655;42.590;23.364;2023-07-22T13:12:30;40.35;;;7.25;;
71806;SDS011;59655;42.590;23.364;2023-07-22T13:14:56;33.85;;;7.65;;
71806;SDS011;59655;42.590;23.364;2023-07-22T13:17:21;33.78;;;7.07;;
71806;SDS011;59655;42.590;23.364;2023-07-22T13:19:46;31.85;;;7.35;;
71806;SDS011;59655;42.590;23.364;2023-07-22T13:22:12;32.75;;;7.70;;
71806;SDS011;59655;42.590;23.364;2023-07-22T13:24:37;45.00;;;8.15;;
71806;SDS011;59655;42.590;23.364;2023-07-22T13:27:03;36.83;;;9.57;;
71806;SDS011;59655;42.590;23.364;2023-07-22T13:29:29;30.27;;;7.18;;
71806;SDS011;59655;42.590;23.364;2023-07-22T13:31:54;38.95;;;7.25;;
71806;SDS011;59655;42.590;23.364;2023-07-22T13:34:20;33.22;;;6.43;;
71806;SDS011;59655;42.590;23.364;2023-07-22T13:36:45;34.70;;;7.75;;
71806;SDS011;59655;42.590;23.364;2023-07-22T13:39:11;36.13;;;7.53;;
71806;SDS011;59655;42.590;23.364;2023-07-22T13:41:37;38.75;;;7.57;;
71806;SDS011;59655;42.590;23.364;2023-07-22T13:44:02;40.45;;;8.35;;
71806;SDS011;59655;42.590;23.364;2023-07-22T13:46:27;35.35;;;7.45;;
71806;SDS011;59655;42.590;23.364;2023-07-22T13:48:53;28.38;;;7.65;;
71806;SDS011;59655;42.590;23.364;2023-07-22T13:51:18;28.50;;;8.07;;
71806;SDS011;59655;42.590;23.364;2023-07-22T13:53:44;39.80;;;7.70;;
71806;SDS011;59655;42.590;23.364;2023-07-22T13:56:09;29.00;;;7.20;;
71806;SDS011;59655;42.590;23.364;2023-07-22T13:58:34;34.28;;;7.47;;
71806;SDS011;59655;42.590;23.364;2023-07-22T14:01:00;36.85;;;8.23;;
71806;SDS011;59655;42.590;23.364;2023-07-22T14:03:25;31.40;;;7.60;;
71806;SDS011;59655;42.590;23.364;2023-07-22T14:05:50;33.90;;;7.38;;
71806;SDS011;59655;42.590;23.364;2023-07-22T14:08:16;30.52;;;7.80;;
71806;SDS011;59655;42.590;23.364;2023-07-22T14:10:41;32.78;;;7.47;;
71806;SDS011;59655;42.590;23.364;2023-07-22T14:13:07;33.20;;;7.25;;
71806;SDS011;59655;42.590;23.364;2023-07-22T14:15:32;32.15;;;6.88;;
71806;SDS011;59655;42.590;23.364;2023-07-22T14:17:57;38.47;;;7.63;;
71806;SDS011;59655;42.590;23.364;2023-07-22T14:20:23;36.58;;;7.82;;
71806;SDS011;59655;42.590;23.364;2023-07-22T14:22:48;33.38;;;7.18;;
71806;SDS011;59655;42.590;23.364;2023-07-22T14:25:17;31.98;;;7.15;;
71806;SDS011;59655;42.590;23.364;2023-07-22T14:27:43;32.42;;;7.65;;